Time;durP1;ratioP1;P1;durP2;ratioP2;P2;SDS_P1;SDS_P2;PMS_P1;PMS_P2;Temp;Humidity;BMP_temperature;BMP_pressure;BME280_temperature;BME280_humidity;BME280_pressure;Samples;Min_cycle;Max_cycle;Signal;HPM_P1;HPM_P2
2022/04/21 00:00:08;;;;;;;7.27;3.40;;;7.80;99.90;;;;;;5036459;28;20254;-93
2022/04/21 00:02:34;;;;;;;2.67;2.47;;;7.80;99.90;;;;;;5052472;28;20234;-93
2022/04/21 00:05:00;;;;;;;2.50;2.30;;;7.80;99.90;;;;;;5027704;28;20221;-92
2022/04/21 00:07:26;;;;;;;5.53;3.23;;;7.80;99.90;;;;;;5035994;28;20304;-93
2022/04/21 00:09:52;;;;;;;5.83;2.90;;;7.70;99.90;;;;;;5037247;28;20636;-93
2022/04/21 00:12:18;;;;;;;3.77;3.33;;;7.70;99.90;;;;;;5033643;28;20215;-92
2022/04/21 00:14:44;;;;;;;6.10;3.27;;;7.70;99.90;;;;;;5043504;28;20245;-93
2022/04/21 00:17:09;;;;;;;2.00;1.90;;;7.70;99.90;;;;;;5052163;28;20963;-92
2022/04/21 00:19:36;;;;;;;5.93;3.53;;;7.70;99.90;;;;;;5034527;28;21018;-92
2022/04/21 00:24:47;;;;;;;6.40;2.87;;;7.70;99.90;;;;;;5036299;28;20190;-92
2022/04/21 00:27:13;;;;;;;4.47;2.60;;;7.70;99.90;;;;;;5034702;28;21024;-92
2022/04/21 00:29:39;;;;;;;6.03;3.97;;;7.70;99.90;;;;;;5033660;28;20219;-93
2022/04/21 00:32:05;;;;;;;4.87;3.67;;;7.60;99.90;;;;;;5049833;28;20312;-92
2022/04/21 00:34:34;;;;;;;3.50;3.30;;;7.60;99.90;;;;;;5019510;28;20229;-92
2022/04/21 00:37:01;;;;;;;6.20;3.37;;;7.60;99.90;;;;;;5026298;28;20194;-92
2022/04/21 00:39:33;;;;;;;6.13;3.83;;;7.60;99.90;;;;;;5052487;28;20202;-92
2022/04/21 00:42:00;;;;;;;6.27;4.67;;;7.70;99.90;;;;;;5033767;28;20344;-92
2022/04/21 00:44:27;;;;;;;5.83;4.47;;;7.70;99.90;;;;;;5034428;28;20229;-91
2022/04/21 00:47:00;;;;;;;6.63;3.53;;;7.70;99.90;;;;;;5037787;28;20249;-91
2022/04/21 00:49:27;;;;;;;9.17;4.27;;;7.70;99.90;;;;;;5036589;28;20214;-91
2022/04/21 00:51:54;;;;;;;6.50;3.83;;;7.70;99.90;;;;;;5035302;28;20216;-91
2022/04/21 00:54:20;;;;;;;8.43;3.77;;;7.70;99.90;;;;;;5036669;28;20257;-92
2022/04/21 00:56:46;;;;;;;3.83;2.70;;;7.60;99.90;;;;;;5036748;28;20210;-92
2022/04/21 00:59:12;;;;;;;9.03;5.00;;;7.60;99.90;;;;;;5035804;28;20225;-92
2022/04/21 01:04:24;;;;;;;8.57;4.90;;;7.40;99.90;;;;;;5046748;28;20214;-91
2022/04/21 01:06:55;;;;;;;5.70;4.33;;;7.40;99.90;;;;;;5035451;28;20207;-91
2022/04/21 01:09:21;;;;;;;8.67;3.53;;;7.60;99.90;;;;;;5033451;28;20219;-92
2022/04/21 01:11:50;;;;;;;6.87;6.27;;;7.70;99.90;;;;;;5026142;28;20214;-92
2022/04/21 01:14:16;;;;;;;17.60;5.57;;;7.80;99.90;;;;;;5043267;28;20217;-92
2022/04/21 01:16:43;;;;;;;6.77;4.97;;;7.80;99.90;;;;;;5036892;28;20302;-92
2022/04/21 01:19:09;;;;;;;7.37;4.57;;;7.70;99.90;;;;;;5045383;28;20187;-92
2022/04/21 01:21:35;;;;;;;6.00;4.63;;;7.70;99.90;;;;;;5055651;28;20309;-92
2022/04/21 01:24:04;;;;;;;11.77;6.20;;;7.60;99.90;;;;;;5039801;28;20245;-92
2022/04/21 01:26:34;;;;;;;8.17;3.90;;;7.40;99.90;;;;;;5037895;28;20217;-92
2022/04/21 01:29:05;;;;;;;5.57;4.73;;;7.50;99.90;;;;;;5038532;28;20226;-91
2022/04/21 01:31:31;;;;;;;9.03;4.73;;;7.40;99.90;;;;;;5039804;28;20582;-91
2022/04/21 01:33:58;;;;;;;5.57;4.93;;;7.40;99.90;;;;;;5029405;28;20183;-90
2022/04/21 01:36:24;;;;;;;9.63;4.70;;;7.30;99.90;;;;;;5038815;28;20244;-92
2022/04/21 01:41:34;;;;;;;5.60;4.03;;;7.30;99.90;;;;;;5052860;28;20954;-91
2022/04/21 01:44:00;;;;;;;8.17;5.13;;;7.30;99.90;;;;;;5054627;28;20225;-92
2022/04/21 01:46:25;;;;;;;6.63;4.40;;;7.30;99.90;;;;;;5037579;28;20221;-91
2022/04/21 01:48:51;;;;;;;6.17;4.23;;;7.30;99.90;;;;;;5038147;28;20198;-92
2022/04/21 01:51:17;;;;;;;7.80;4.07;;;7.30;99.90;;;;;;5040635;28;20238;-91
2022/04/21 01:53:43;;;;;;;5.83;4.27;;;7.30;99.90;;;;;;5038444;28;20548;-92
2022/04/21 01:56:09;;;;;;;7.20;3.67;;;7.40;99.90;;;;;;5039572;28;20249;-92
2022/04/21 01:58:34;;;;;;;9.10;4.83;;;7.50;99.90;;;;;;5038077;28;21165;-92
2022/04/21 02:01:00;;;;;;;6.63;4.57;;;7.50;99.90;;;;;;5038611;28;20217;-92
2022/04/21 02:03:27;;;;;;;4.47;4.07;;;7.50;99.90;;;;;;5036004;28;20228;-92
2022/04/21 02:05:53;;;;;;;6.87;4.67;;;7.50;99.90;;;;;;5029367;28;20583;-91
2022/04/21 02:08:19;;;;;;;8.93;5.97;;;7.50;99.90;;;;;;5037401;28;20217;-91
2022/04/21 02:10:45;;;;;;;9.07;5.07;;;7.50;99.90;;;;;;5029215;28;20356;-92
2022/04/21 02:13:10;;;;;;;5.50;4.87;;;7.40;99.90;;;;;;5038274;28;20307;-92
2022/04/21 02:15:37;;;;;;;7.47;5.20;;;7.40;99.90;;;;;;5056322;28;20244;-91
2022/04/21 02:18:02;;;;;;;5.20;4.27;;;7.30;99.90;;;;;;5054753;28;20562;-92
2022/04/21 02:20:28;;;;;;;7.13;5.10;;;7.30;99.90;;;;;;5029361;28;20221;-92
2022/04/21 02:22:54;;;;;;;8.53;4.83;;;7.30;99.90;;;;;;5038593;28;20231;-91
2022/04/21 02:25:20;;;;;;;5.77;4.57;;;7.40;99.90;;;;;;5037425;28;20635;-92
2022/04/21 02:27:47;;;;;;;7.17;5.30;;;7.40;99.90;;;;;;5038081;28;20194;-92
2022/04/21 02:30:15;;;;;;;13.33;5.23;;;7.40;99.90;;;;;;5038512;28;20217;-91
2022/04/21 02:32:42;;;;;;;7.07;4.17;;;7.30;99.90;;;;;;5038335;28;20257;-91
2022/04/21 02:35:09;;;;;;;5.37;4.87;;;7.30;99.90;;;;;;5037897;28;20257;-92
2022/04/21 02:37:39;;;;;;;7.13;4.60;;;7.20;99.90;;;;;;5036799;28;20210;-92
2022/04/21 02:40:07;;;;;;;5.63;3.50;;;7.20;99.90;;;;;;5039279;28;20193;-92
2022/04/21 02:42:33;;;;;;;6.13;5.17;;;7.20;99.90;;;;;;5038719;28;20249;-92
2022/04/21 02:44:59;;;;;;;6.20;4.03;;;7.20;99.90;;;;;;5036776;28;20582;-90
2022/04/21 02:47:25;;;;;;;4.73;4.00;;;7.10;99.90;;;;;;5029494;28;20214;-91
2022/04/21 02:49:52;;;;;;;7.40;3.73;;;7.00;99.90;;;;;;5037967;28;20353;-91
2022/04/21 02:52:18;;;;;;;6.10;4.40;;;6.90;99.90;;;;;;5052427;28;20272;-93
2022/04/21 02:57:30;;;;;;;5.43;3.93;;;6.90;99.90;;;;;;5051174;28;20263;-92
2022/04/21 02:59:59;;;;;;;4.87;4.10;;;7.00;99.90;;;;;;5037435;28;20226;-90
2022/04/21 03:02:25;;;;;;;4.93;2.93;;;7.10;99.90;;;;;;5036736;28;20237;-93
2022/04/21 03:04:52;;;;;;;5.53;4.10;;;7.00;99.90;;;;;;5028773;28;20752;-90
2022/04/21 03:07:20;;;;;;;6.20;3.00;;;7.10;99.90;;;;;;5044653;28;20305;-91
2022/04/21 03:09:46;;;;;;;5.70;4.27;;;7.10;99.90;;;;;;5038466;28;21063;-91
2022/04/21 03:12:12;;;;;;;8.43;5.30;;;7.10;99.90;;;;;;5035860;28;20317;-92
2022/04/21 03:14:40;;;;;;;4.87;4.03;;;7.20;99.90;;;;;;5036583;28;20305;-91
2022/04/21 03:17:06;;;;;;;8.73;4.53;;;7.20;99.90;;;;;;5036902;28;20232;-91
2022/04/21 03:19:33;;;;;;;4.43;3.67;;;7.20;99.90;;;;;;5039695;28;20724;-91
2022/04/21 03:24:46;;;;;;;6.10;5.00;;;7.20;99.90;;;;;;5050332;28;20195;-92
2022/04/21 03:27:12;;;;;;;6.43;5.83;;;7.10;99.90;;;;;;5036042;28;20627;-91
2022/04/21 03:29:38;;;;;;;3.70;2.50;;;7.10;99.90;;;;;;5034698;28;20253;-90
2022/04/21 03:32:09;;;;;;;4.07;3.10;;;7.10;99.90;;;;;;5037174;28;20267;-91
2022/04/21 03:34:44;;;;;;;7.50;4.50;;;7.00;99.90;;;;;;5028340;28;20760;-92
2022/04/21 03:37:13;;;;;;;8.30;5.17;;;6.90;99.90;;;;;;5044229;28;20225;-92
2022/04/21 03:39:40;;;;;;;7.50;3.93;;;6.90;99.90;;;;;;5038285;28;20175;-91
2022/04/21 03:42:07;;;;;;;7.13;5.60;;;6.80;99.90;;;;;;5027337;28;20242;-91
2022/04/21 03:44:39;;;;;;;4.40;4.00;;;6.80;99.90;;;;;;5037568;28;20321;-91
2022/04/21 03:47:06;;;;;;;4.77;3.47;;;6.80;99.90;;;;;;5037449;28;20256;-91
2022/04/21 03:49:32;;;;;;;7.00;2.90;;;6.80;99.90;;;;;;5027353;28;20218;-92
2022/04/21 03:51:58;;;;;;;5.00;4.07;;;6.80;99.90;;;;;;5034843;28;20210;-91
2022/04/21 03:54:24;;;;;;;7.23;4.37;;;6.80;99.90;;;;;;5033787;28;20205;-92
2022/04/21 03:56:50;;;;;;;9.57;4.07;;;6.80;99.90;;;;;;5032864;28;20236;-91
2022/04/21 03:59:17;;;;;;;4.27;3.63;;;6.80;99.90;;;;;;5026632;28;20230;-90
2022/04/21 04:01:44;;;;;;;5.90;3.80;;;6.70;99.90;;;;;;5035282;28;20253;-91
2022/04/21 04:04:10;;;;;;;5.60;4.63;;;6.70;99.90;;;;;;5034241;28;20448;-89
2022/04/21 04:12:07;;;;;;;4.83;3.93;;;6.70;99.90;;;;;;5049417;28;20998;-90
2022/04/21 04:14:33;;;;;;;3.07;2.60;;;6.70;99.90;;;;;;5035148;28;20222;-90
2022/04/21 04:16:59;;;;;;;6.07;3.00;;;6.80;99.90;;;;;;5043031;28;20222;-90
2022/04/21 04:19:24;;;;;;;2.97;2.23;;;6.80;99.90;;;;;;5050220;28;20276;-91
2022/04/21 04:21:50;;;;;;;5.53;3.40;;;6.80;99.90;;;;;;5050757;28;20280;-91
2022/04/21 04:24:16;;;;;;;4.67;3.10;;;6.80;99.90;;;;;;5043012;28;20219;-91
2022/04/21 04:26:41;;;;;;;5.83;3.30;;;6.70;99.90;;;;;;5043770;28;20272;-90
2022/04/21 04:29:07;;;;;;;3.23;2.60;;;6.70;99.90;;;;;;5034805;28;20214;-90
2022/04/21 04:31:33;;;;;;;2.73;2.23;;;6.60;99.90;;;;;;5034587;28;20583;-89
2022/04/21 04:34:00;;;;;;;4.87;2.77;;;6.70;99.90;;;;;;5034322;28;20247;-89
2022/04/21 04:36:26;;;;;;;3.07;2.40;;;6.80;99.90;;;;;;5034803;28;20329;-91
2022/04/21 04:38:51;;;;;;;2.13;2.03;;;6.90;99.90;;;;;;5026558;28;20619;-90
2022/04/21 04:44:02;;;;;;;5.73;2.50;;;6.90;99.90;;;;;;5048127;28;20937;-90
2022/04/21 04:46:37;;;;;;;3.33;2.90;;;6.90;99.90;;;;;;5052098;28;20210;-90
2022/04/21 04:49:08;;;;;;;1.63;1.53;;;6.90;99.90;;;;;;5028167;28;20177;-91
2022/04/21 04:51:37;;;;;;;3.67;2.53;;;6.90;99.90;;;;;;5036606;28;20248;-89
2022/04/21 04:54:06;;;;;;;5.27;3.37;;;7.00;99.90;;;;;;5035313;28;20218;-91
2022/04/21 04:56:35;;;;;;;5.00;3.10;;;7.00;99.90;;;;;;5037609;28;20226;-88
2022/04/21 04:59:01;;;;;;;4.13;2.80;;;7.00;99.90;;;;;;5032824;28;20215;-89
2022/04/21 05:01:45;;;;;;;3.17;2.87;;;7.00;99.90;;;;;;5052434;28;20722;-89
2022/04/21 05:04:18;;;;;;;3.97;3.07;;;7.10;99.90;;;;;;5034061;28;20209;-89
2022/04/21 05:06:46;;;;;;;5.27;3.10;;;7.10;99.90;;;;;;5049896;28;20174;-89
2022/04/21 05:09:17;;;;;;;3.03;2.77;;;7.10;99.90;;;;;;5041003;28;20214;-89
2022/04/21 05:11:47;;;;;;;2.67;2.47;;;7.10;99.90;;;;;;5037744;28;20232;-89
2022/04/21 05:14:13;;;;;;;1.77;1.67;;;7.20;99.90;;;;;;5035404;28;20222;-88
2022/04/21 05:16:39;;;;;;;3.07;2.87;;;7.30;99.90;;;;;;5033291;28;20217;-91
2022/04/21 05:19:09;;;;;;;2.47;2.27;;;7.60;99.90;;;;;;5033876;28;20202;-90
2022/04/21 05:21:36;;;;;;;5.33;2.13;;;8.20;99.90;;;;;;5051646;28;20217;-90
2022/04/21 05:24:04;;;;;;;4.73;2.50;;;9.10;99.90;;;;;;5034418;28;20230;-89
2022/04/21 05:26:31;;;;;;;3.47;3.10;;;9.90;99.90;;;;;;5033043;28;20548;-89
2022/04/21 05:28:59;;;;;;;3.67;2.53;;;10.30;99.90;;;;;;5034732;28;20321;-90
2022/04/21 05:31:30;;;;;;;3.13;2.37;;;10.60;99.90;;;;;;5033417;28;21017;-90
2022/04/21 05:33:56;;;;;;;4.60;2.57;;;11.00;99.90;;;;;;5036503;28;20194;-89
2022/04/21 05:36:22;;;;;;;2.87;2.13;;;11.20;99.90;;;;;;5050704;28;20205;-90
2022/04/21 05:38:51;;;;;;;3.40;2.43;;;11.50;99.90;;;;;;5035400;28;20681;-91
2022/04/21 05:41:19;;;;;;;4.97;2.83;;;12.00;99.90;;;;;;5032276;28;20299;-88
2022/04/21 05:43:46;;;;;;;4.50;3.17;;;13.10;99.90;;;;;;5049015;28;20329;-91
2022/04/21 05:46:15;;;;;;;4.10;2.83;;;13.90;99.90;;;;;;5033657;28;20222;-89
2022/04/21 05:48:42;;;;;;;3.50;2.07;;;13.80;99.90;;;;;;5033032;28;20190;-89
2022/04/21 05:51:11;;;;;;;2.37;2.00;;;14.50;99.90;;;;;;5033238;28;20273;-89
2022/04/21 05:53:38;;;;;;;3.80;2.97;;;15.50;99.90;;;;;;5036607;28;20229;-87
2022/04/21 05:56:07;;;;;;;4.13;2.53;;;16.80;99.90;;;;;;5032689;28;20222;-91
2022/04/21 05:58:33;;;;;;;4.97;2.70;;;15.90;99.90;;;;;;5033768;28;20294;-91
2022/04/21 06:01:04;;;;;;;3.23;2.53;;;16.40;99.90;;;;;;5035573;28;20423;-90
2022/04/21 06:03:30;;;;;;;3.03;2.53;;;16.00;99.90;;;;;;5034656;28;20697;-89
2022/04/21 06:05:55;;;;;;;3.37;1.87;;;16.20;99.90;;;;;;5026604;28;20749;-87
2022/04/21 06:08:21;;;;;;;4.90;2.97;;;15.50;99.90;;;;;;5034813;28;20298;-88
2022/04/21 06:10:47;;;;;;;3.50;2.20;;;15.70;99.90;;;;;;5053590;28;20217;-87
2022/04/21 06:13:15;;;;;;;4.63;2.77;;;15.70;99.90;;;;;;5038501;28;20495;-88
2022/04/21 06:15:42;;;;;;;6.47;2.40;;;16.40;99.90;;;;;;5030171;28;20189;-88
2022/04/21 06:18:08;;;;;;;4.80;3.13;;;16.40;99.90;;;;;;5044686;28;20230;-88
2022/04/21 06:20:35;;;;;;;3.00;2.77;;;15.90;99.90;;;;;;5035756;28;20814;-89
2022/04/21 06:23:01;;;;;;;6.03;2.77;;;16.20;99.90;;;;;;5036449;28;20266;-88
2022/04/21 06:25:26;;;;;;;3.00;2.47;;;16.90;99.90;;;;;;5044893;28;20225;-88
2022/04/21 06:27:52;;;;;;;4.50;2.93;;;16.90;99.90;;;;;;5035282;28;20194;-85
2022/04/21 06:30:19;;;;;;;4.73;2.50;;;16.50;99.90;;;;;;5034480;28;20197;-90
2022/04/21 06:32:45;;;;;;;4.60;3.53;;;16.50;99.90;;;;;;5038011;28;20229;-90
2022/04/21 06:35:11;;;;;;;4.73;2.87;;;17.20;99.90;;;;;;5038487;28;20265;-90
2022/04/21 06:37:37;;;;;;;4.53;2.73;;;17.30;99.90;;;;;;5036848;28;20242;-89
2022/04/21 06:40:04;;;;;;;4.60;2.60;;;17.00;99.90;;;;;;5053206;28;20333;-89
2022/04/21 06:42:29;;;;;;;4.60;3.47;;;16.80;99.90;;;;;;5036474;28;20273;-89
2022/04/21 06:50:25;;;;;;;4.03;2.80;;;16.90;99.90;;;;;;5047573;28;20265;-90
2022/04/21 06:52:51;;;;;;;3.10;2.77;;;17.40;99.90;;;;;;5032094;28;20248;-88
2022/04/21 06:55:17;;;;;;;4.97;2.77;;;17.30;99.90;;;;;;5050674;28;20652;-87
2022/04/21 06:57:42;;;;;;;3.50;2.80;;;17.80;99.90;;;;;;5034108;28;20202;-91
2022/04/21 07:00:09;;;;;;;3.27;2.97;;;17.50;99.90;;;;;;5026039;28;20250;-88
2022/04/21 07:02:38;;;;;;;4.80;3.07;;;17.40;99.90;;;;;;5031458;28;20321;-90
2022/04/21 07:05:06;;;;;;;3.13;2.83;;;16.80;99.90;;;;;;5033259;28;20215;-89
2022/04/21 07:07:32;;;;;;;2.67;2.10;;;17.10;99.90;;;;;;5051876;28;20279;-88
2022/04/21 07:09:58;;;;;;;4.57;2.50;;;16.70;99.90;;;;;;5033929;28;20626;-85
2022/04/21 07:12:31;;;;;;;3.20;2.27;;;17.20;99.90;;;;;;5034629;28;20183;-87
2022/04/21 07:15:01;;;;;;;3.57;2.13;;;16.90;99.90;;;;;;5042897;28;20672;-86
2022/04/21 07:17:27;;;;;;;2.90;2.10;;;17.20;99.90;;;;;;5033444;28;20291;-85
2022/04/21 07:19:53;;;;;;;5.00;2.50;;;17.20;99.90;;;;;;5034261;28;20698;-88
2022/04/21 07:22:20;;;;;;;1.83;1.57;;;16.70;99.90;;;;;;5040960;28;20231;-88
2022/04/21 07:24:47;;;;;;;3.23;2.43;;;16.90;99.90;;;;;;5037690;28;20805;-86
2022/04/21 07:27:13;;;;;;;2.00;1.77;;;17.20;99.90;;;;;;5049847;28;20610;-88
2022/04/21 07:29:39;;;;;;;3.70;1.80;;;16.60;99.90;;;;;;5050077;28;20302;-89
2022/04/21 07:32:05;;;;;;;3.93;1.90;;;16.30;99.90;;;;;;5025521;28;20253;-88
2022/04/21 07:34:31;;;;;;;3.20;2.23;;;15.60;99.90;;;;;;5051748;28;20219;-89
2022/04/21 07:36:57;;;;;;;2.57;2.27;;;15.90;99.90;;;;;;5034730;28;20191;-88
2022/04/21 07:39:22;;;;;;;3.07;2.00;;;17.00;99.90;;;;;;5051639;28;20194;-89
2022/04/21 07:41:48;;;;;;;3.70;1.70;;;16.30;99.90;;;;;;5034181;28;20226;-88
2022/04/21 07:44:14;;;;;;;1.53;1.37;;;16.10;99.90;;;;;;5033709;28;20671;-89
2022/04/21 07:46:40;;;;;;;3.00;2.03;;;16.70;99.90;;;;;;5037039;28;21046;-89
2022/04/21 07:51:50;;;;;;;2.37;1.50;;;17.00;99.90;;;;;;5035430;28;20182;-90
2022/04/21 07:54:16;;;;;;;2.93;1.40;;;16.80;99.90;;;;;;5035927;28;21094;-88
2022/04/21 07:56:42;;;;;;;2.30;2.07;;;16.90;99.90;;;;;;5033931;28;20226;-88
2022/04/21 07:59:08;;;;;;;1.83;1.63;;;17.20;99.90;;;;;;5035618;28;20219;-88
2022/04/21 08:01:33;;;;;;;2.07;1.60;;;17.30;99.90;;;;;;5035718;28;20219;-91
2022/04/21 08:04:02;;;;;;;2.07;1.80;;;16.90;99.90;;;;;;5034565;28;20702;-89
2022/04/21 08:06:28;;;;;;;2.10;1.73;;;17.80;99.90;;;;;;5033294;28;20197;-87
2022/04/21 08:08:55;;;;;;;3.67;1.50;;;18.00;99.90;;;;;;5035220;28;20229;-88
2022/04/21 08:11:21;;;;;;;2.00;1.77;;;17.40;99.90;;;;;;5026694;28;20268;-88
2022/04/21 08:13:47;;;;;;;1.80;1.60;;;17.30;99.90;;;;;;5037497;28;20296;-88
2022/04/21 08:16:13;;;;;;;1.67;1.33;;;17.40;99.90;;;;;;5035964;28;20301;-91
2022/04/21 08:18:39;;;;;;;2.00;1.30;;;17.10;99.90;;;;;;5034298;28;20698;-91
2022/04/21 08:21:06;;;;;;;2.97;1.60;;;16.80;99.90;;;;;;5034180;28;20230;-87
2022/04/21 08:23:38;;;;;;;1.40;1.17;;;17.40;99.90;;;;;;5025799;28;20765;-88
2022/04/21 08:34:16;;;;;;;1.50;1.40;;;17.10;99.90;;;;;;5031714;28;20225;-89
2022/04/21 08:36:42;;;;;;;3.20;1.50;;;17.30;99.90;;;;;;5026343;28;20247;-88
2022/04/21 08:39:07;;;;;;;1.70;1.43;;;17.60;99.90;;;;;;5033400;28;20578;-89
2022/04/21 08:41:35;;;;;;;1.80;1.70;;;17.60;99.90;;;;;;5036098;28;20345;-91
2022/04/21 08:44:03;;;;;;;1.73;1.13;;;17.50;99.90;;;;;;5025164;28;20275;-90
2022/04/21 08:46:32;;;;;;;3.50;2.17;;;17.40;99.90;;;;;;5035836;28;20220;-90
2022/04/21 08:49:00;;;;;;;1.73;1.60;;;17.10;99.90;;;;;;5033790;28;20804;-91
2022/04/21 08:51:28;;;;;;;1.90;1.40;;;16.90;99.90;;;;;;5051212;28;20187;-90
2022/04/21 08:53:55;;;;;;;1.90;1.70;;;17.30;99.90;;;;;;5034165;28;20218;-90
2022/04/21 08:56:22;;;;;;;1.70;1.60;;;17.50;99.90;;;;;;5033961;28;20313;-91
2022/04/21 08:58:48;;;;;;;1.80;1.37;;;17.20;99.90;;;;;;5034062;28;20240;-91
2022/04/21 09:01:15;;;;;;;2.47;1.90;;;17.20;99.90;;;;;;5025657;28;20226;-91
2022/04/21 09:03:41;;;;;;;2.27;1.70;;;16.60;99.90;;;;;;5035424;28;20315;-90
2022/04/21 09:06:09;;;;;;;2.40;1.67;;;16.70;99.90;;;;;;5017586;28;20306;-90
2022/04/21 09:08:35;;;;;;;2.70;2.00;;;16.90;99.90;;;;;;5034144;28;20244;-91
2022/04/21 09:11:09;;;;;;;2.30;2.10;;;17.00;99.90;;;;;;5034890;28;20233;-89
2022/04/21 09:13:40;;;;;;;2.27;1.87;;;17.40;99.90;;;;;;5033137;28;20237;-90
2022/04/21 09:16:10;;;;;;;2.33;1.80;;;17.10;99.90;;;;;;5032701;28;20194;-91
2022/04/21 09:18:47;;;;;;;2.20;1.60;;;17.00;99.90;;;;;;5052252;28;20232;-90
2022/04/21 09:21:14;;;;;;;1.77;1.60;;;17.40;99.90;;;;;;5034808;28;20213;-91
2022/04/21 09:23:42;;;;;;;2.47;1.67;;;17.40;99.90;;;;;;5033981;28;20229;-91
2022/04/21 09:26:11;;;;;;;2.90;1.93;;;17.40;99.90;;;;;;5035854;28;20282;-89
2022/04/21 09:28:38;;;;;;;7.10;2.60;;;17.40;99.90;;;;;;5033011;28;20221;-90
2022/04/21 09:31:06;;;;;;;4.40;2.10;;;18.20;99.90;;;;;;5042193;28;20186;-90
2022/04/21 09:33:34;;;;;;;2.50;2.17;;;18.00;99.90;;;;;;5035031;28;20648;-91
2022/04/21 09:36:04;;;;;;;1.47;1.33;;;18.10;99.90;;;;;;5033746;28;20300;-88
2022/04/21 09:38:31;;;;;;;3.73;1.57;;;18.20;99.90;;;;;;5041607;28;20348;-90
2022/04/21 09:41:05;;;;;;;2.17;1.30;;;18.20;99.90;;;;;;5036320;28;20222;-89
2022/04/21 09:43:37;;;;;;;4.13;1.30;;;17.50;99.90;;;;;;5038801;28;20236;-90
2022/04/21 09:46:21;;;;;;;1.17;1.07;;;17.10;99.90;;;;;;5039165;28;20632;-92
2022/04/21 09:48:52;;;;;;;1.43;0.90;;;17.10;99.90;;;;;;5036722;28;20178;-91
2022/04/21 09:51:29;;;;;;;3.13;1.90;;;16.60;99.90;;;;;;5037027;28;20210;-92
2022/04/21 09:54:16;;;;;;;2.13;1.43;;;16.60;99.90;;;;;;5045425;28;20214;-91
2022/04/21 09:56:42;;;;;;;2.53;1.00;;;17.20;99.90;;;;;;5037694;28;20570;-91
2022/04/21 09:59:12;;;;;;;1.67;1.10;;;17.10;99.90;;;;;;5027571;28;20237;-92
2022/04/21 10:01:42;;;;;;;1.30;1.20;;;16.80;99.90;;;;;;5037120;28;20297;-91
2022/04/21 10:04:09;;;;;;;1.63;0.97;;;17.00;99.90;;;;;;5039309;28;20178;-91
2022/04/21 10:06:37;;;;;;;1.70;1.60;;;17.30;99.90;;;;;;5035927;28;20251;-91
2022/04/21 10:09:06;;;;;;;1.03;0.80;;;16.80;99.90;;;;;;5054580;28;20582;-92
2022/04/21 10:11:32;;;;;;;7.47;1.20;;;16.50;99.90;;;;;;5038961;28;20224;-92
2022/04/21 10:13:58;;;;;;;3.70;1.30;;;16.50;99.90;;;;;;5036666;28;20213;-90
2022/04/21 10:16:30;;;;;;;7.80;1.90;;;16.50;99.90;;;;;;5036750;28;20497;-92
2022/04/21 10:18:58;;;;;;;2.57;1.40;;;16.60;99.90;;;;;;5040827;28;20221;-91
2022/04/21 10:21:53;;;;;;;2.13;1.40;;;16.90;99.90;;;;;;5039656;28;20190;-90
2022/04/21 10:24:29;;;;;;;2.57;1.20;;;16.70;99.90;;;;;;5039071;28;20261;-91
2022/04/21 10:26:56;;;;;;;1.80;1.27;;;16.00;99.90;;;;;;5040346;28;20209;-90
2022/04/21 10:29:28;;;;;;;2.27;1.43;;;16.20;99.90;;;;;;5035016;28;20218;-90
2022/04/21 10:32:03;;;;;;;1.67;1.50;;;16.40;99.90;;;;;;5039124;28;20246;-91
2022/04/21 10:34:37;;;;;;;1.23;1.13;;;16.50;99.90;;;;;;5051064;28;20214;-91
2022/04/21 10:37:16;;;;;;;2.03;1.87;;;16.70;99.90;;;;;;5036112;28;20212;-90
2022/04/21 10:40:00;;;;;;;2.30;1.70;;;16.40;99.90;;;;;;5038135;28;20186;-90
2022/04/21 10:42:26;;;;;;;3.23;1.70;;;16.30;99.90;;;;;;5052173;28;20257;-90
2022/04/21 10:44:55;;;;;;;4.93;2.07;;;16.30;99.90;;;;;;5028232;28;20210;-91
2022/04/21 10:47:31;;;;;;;7.03;1.77;;;16.50;99.90;;;;;;5036195;28;20686;-90
2022/04/21 10:50:00;;;;;;;2.17;1.53;;;16.70;99.90;;;;;;5033457;28;20218;-90
2022/04/21 10:57:51;;;;;;;1.43;1.00;;;16.50;99.90;;;;;;5036806;28;20186;-90
2022/04/21 11:00:34;;;;;;;1.90;1.70;;;16.00;99.90;;;;;;5051193;28;20305;-91
2022/04/21 11:03:05;;;;;;;1.80;1.37;;;16.10;99.90;;;;;;5037662;28;20476;-93
2022/04/21 11:05:33;;;;;;;3.97;1.93;;;15.90;99.90;;;;;;5033584;28;20670;-93
2022/04/21 11:08:17;;;;;;;5.70;2.60;;;16.00;99.90;;;;;;5037536;28;20217;-92
2022/04/21 11:10:44;;;;;;;1.67;1.57;;;15.80;99.90;;;;;;5034721;28;20218;-94
2022/04/21 11:13:19;;;;;;;3.13;2.10;;;16.10;99.90;;;;;;5035102;28;20197;-91
2022/04/21 11:15:45;;;;;;;3.90;2.53;;;16.10;99.90;;;;;;5035694;28;20643;-92
2022/04/21 11:18:12;;;;;;;6.10;2.03;;;16.20;99.90;;;;;;5027064;28;20324;-92
2022/04/21 11:20:43;;;;;;;4.10;2.73;;;16.40;99.90;;;;;;5039906;28;20693;-91
2022/04/21 11:23:31;;;;;;;2.20;1.80;;;16.40;99.90;;;;;;5036487;28;20230;-92
2022/04/21 11:26:08;;;;;;;2.00;1.80;;;16.80;99.90;;;;;;5038250;28;20294;-91
2022/04/21 11:28:35;;;;;;;4.33;1.90;;;16.50;99.90;;;;;;5043758;28;20218;-91
2022/04/21 11:31:03;;;;;;;3.13;2.10;;;16.80;99.90;;;;;;5036987;28;20752;-90
2022/04/21 11:33:31;;;;;;;3.10;2.13;;;16.60;99.90;;;;;;5034352;28;20189;-92
2022/04/21 11:36:07;;;;;;;2.43;2.23;;;16.40;99.90;;;;;;5036432;28;20610;-88
2022/04/21 11:38:34;;;;;;;2.23;1.73;;;16.40;99.90;;;;;;5035409;28;20233;-91
2022/04/21 11:41:09;;;;;;;1.73;1.63;;;15.90;99.90;;;;;;5051638;28;20218;-91
2022/04/21 11:43:36;;;;;;;6.70;2.00;;;16.20;99.90;;;;;;5034073;28;20229;-92
2022/04/21 11:46:05;;;;;;;3.17;1.90;;;16.20;99.90;;;;;;5037468;28;20229;-91
2022/04/21 11:48:31;;;;;;;2.43;1.90;;;15.80;99.90;;;;;;5035300;28;20192;-91
2022/04/21 11:51:07;;;;;;;1.97;1.63;;;15.80;99.90;;;;;;5039397;28;20294;-91
2022/04/21 11:53:40;;;;;;;5.57;2.43;;;16.30;99.90;;;;;;5042442;28;20232;-91
2022/04/21 11:56:08;;;;;;;1.83;1.33;;;16.50;99.90;;;;;;5044112;28;20309;-90
2022/04/21 11:58:39;;;;;;;2.43;1.13;;;16.10;99.90;;;;;;5032454;28;20682;-91
2022/04/21 12:06:45;;;;;;;1.73;1.30;;;15.10;99.90;;;;;;5036588;28;20264;-92
2022/04/21 12:09:16;;;;;;;2.50;2.07;;;15.10;99.90;;;;;;5035303;28;20326;-91
2022/04/21 12:11:42;;;;;;;3.43;1.23;;;15.40;99.90;;;;;;5036006;28;20272;-90
2022/04/21 12:14:09;;;;;;;1.60;1.50;;;15.90;99.90;;;;;;5048119;28;20264;-90
2022/04/21 12:16:44;;;;;;;1.47;0.97;;;16.00;99.90;;;;;;5034432;28;20222;-91
2022/04/21 12:19:17;;;;;;;1.37;1.20;;;15.80;99.90;;;;;;5031361;28;20185;-90
2022/04/21 12:21:55;;;;;;;2.50;1.63;;;15.30;99.90;;;;;;5051340;28;20182;-90
2022/04/21 12:24:28;;;;;;;2.47;1.60;;;15.50;99.90;;;;;;5032775;28;20265;-91
2022/04/21 12:26:54;;;;;;;2.13;1.00;;;15.50;99.90;;;;;;5035237;28;20214;-91
2022/04/21 12:29:22;;;;;;;2.10;1.30;;;15.60;99.90;;;;;;5034872;28;20229;-92
2022/04/21 12:31:56;;;;;;;1.40;1.30;;;15.50;99.90;;;;;;5031349;28;20682;-90
2022/04/21 12:34:27;;;;;;;1.67;1.30;;;15.50;99.90;;;;;;5034029;28;20309;-91
2022/04/21 12:36:57;;;;;;;2.07;1.60;;;15.60;99.90;;;;;;5035067;28;20195;-88
2022/04/21 12:39:23;;;;;;;4.30;1.87;;;15.10;99.90;;;;;;5036110;28;20249;-91
2022/04/21 12:41:51;;;;;;;1.33;1.23;;;15.20;99.90;;;;;;5033409;28;20309;-91
2022/04/21 12:44:19;;;;;;;2.03;1.87;;;15.60;99.90;;;;;;5033350;28;20230;-92
2022/04/21 12:47:00;;;;;;;2.10;1.30;;;15.40;99.90;;;;;;5034295;28;20308;-93
2022/04/21 12:49:50;;;;;;;1.50;1.27;;;14.80;99.90;;;;;;5034757;28;20217;-90
2022/04/21 12:52:37;;;;;;;2.40;1.00;;;14.90;99.90;;;;;;5051214;28;20269;-91
2022/04/21 12:55:22;;;;;;;1.93;1.37;;;15.10;99.90;;;;;;5032349;28;20613;-92
2022/04/21 12:58:13;;;;;;;1.20;1.10;;;15.50;99.90;;;;;;5032132;28;20187;-90
2022/04/21 13:00:45;;;;;;;1.57;1.13;;;15.60;99.90;;;;;;5034179;28;20566;-89
2022/04/21 13:03:13;;;;;;;3.63;1.63;;;15.70;99.90;;;;;;5034653;28;20221;-93
2022/04/21 13:05:53;;;;;;;6.43;1.83;;;15.80;99.90;;;;;;5031538;28;21153;-90
2022/04/21 13:08:19;;;;;;;1.47;1.37;;;15.40;99.90;;;;;;5034663;28;20229;-92
2022/04/21 13:10:45;;;;;;;5.30;1.70;;;15.60;99.90;;;;;;5034469;28;20225;-91
2022/04/21 13:13:11;;;;;;;1.13;1.03;;;15.50;99.90;;;;;;5036532;28;20198;-92
2022/04/21 13:15:37;;;;;;;11.93;1.40;;;15.60;99.90;;;;;;5037368;28;20197;-90
2022/04/21 13:18:03;;;;;;;1.53;1.07;;;15.80;99.90;;;;;;5040519;28;20313;-89
2022/04/21 13:23:13;;;;;;;4.93;1.30;;;15.20;99.90;;;;;;5051261;28;20560;-89
2022/04/21 13:25:39;;;;;;;1.17;1.00;;;14.50;99.90;;;;;;5037711;28;20220;-89
2022/04/21 13:28:04;;;;;;;2.53;1.50;;;14.80;99.90;;;;;;5036308;28;20194;-90
2022/04/21 13:30:30;;;;;;;1.93;1.30;;;14.70;99.90;;;;;;5041044;28;20210;-90
2022/04/21 13:35:41;;;;;;;1.97;1.30;;;14.70;99.90;;;;;;5041282;28;20214;-88
2022/04/21 13:38:08;;;;;;;1.50;1.40;;;14.60;99.90;;;;;;5037835;28;20589;-88
2022/04/21 13:40:34;;;;;;;1.73;1.47;;;14.70;99.90;;;;;;5035450;28;20268;-88
2022/04/21 13:42:59;;;;;;;1.67;1.57;;;14.90;99.90;;;;;;5037064;28;20234;-89
2022/04/21 13:45:26;;;;;;;2.57;0.83;;;14.80;99.90;;;;;;5029326;28;20194;-89
2022/04/21 13:47:52;;;;;;;1.93;1.57;;;14.90;99.90;;;;;;5037547;28;20292;-88
2022/04/21 13:50:18;;;;;;;1.77;1.03;;;14.80;99.90;;;;;;5037691;28;20678;-91